Flight Track Log - Related Links

Times and Time Zones

All times are in EDT time to prevent confusion due to time zone crossing. See the ASQ6023 flight status page for this flight to view local times or setup timezone preferences in your user account.

Time Position Orientation Groundspeed Altitude Reporting Facility
EDT Latitude Longitude Course Direction KTS MPH feet Rate Location/Type
Sat 12:38:10 PM 41.3153 -95.9144 354° North 157 181 1,500  Level Minneapolis Center
Sat 12:39:23 PM 41.3703 -95.9219 354° North 199 229 3,900 2,213 Climbing Minneapolis Center
Sat 12:40:31 PM 41.4364 -95.8692 31° Northeast 222 255 6,700 2,538 Climbing Minneapolis Center
Sat 12:41:33 PM 41.4964 -95.8203 31° Northeast 238 274 9,400 2,293 Climbing Minneapolis Center
Sat 12:42:34 PM 41.5603 -95.7708 30° Northeast 251 289 11,400 1,756 Climbing Minneapolis Center
Sat 12:43:36 PM 41.6208 -95.6867 46° Northeast 289 333 13,000 1,548 Climbing Minneapolis Center
Sat 12:44:38 PM 41.6858 -95.5992 45° Northeast 318 366 14,600 1,610 Climbing Minneapolis Center
Sat 12:45:39 PM 41.7528 -95.5036 47° Northeast 344 396 16,300 1,512 Climbing Minneapolis Center
Sat 12:46:41 PM 41.8225 -95.4086 45° Northeast 354 407 17,700 1,548 Climbing Minneapolis Center
Sat 12:47:43 PM 41.9092 -95.2889 46° Northeast 367 422 19,500 1,610 Climbing Minneapolis Center
Sat 12:48:44 PM 41.9364 -95.1553 75° East 372 428 21,000 1,366 Climbing Minneapolis Center
Sat 12:49:46 PM 41.9547 -95.0164 80° East 377 434 22,300 1,500 Climbing Minneapolis Center
Sat 12:50:48 PM 41.9694 -94.8747 82° East 381 438 24,100 1,610 Climbing Minneapolis Center
Sat 12:51:49 PM 41.9875 -94.7372 80° East 376 433 25,600 1,317 Climbing Minneapolis Center
Sat 12:52:51 PM 42.0039 -94.5997 81° East 373 429 26,800 1,065 Climbing Minneapolis Center
Sat 12:53:53 PM 42.0214 -94.4586 80° East 379 436 27,800 976 Climbing Minneapolis Center
Sat 12:54:54 PM 42.0378 -94.3153 81° East 386 444 28,800 1,073 Climbing Minneapolis Center
Sat 12:55:56 PM 42.0578 -94.1442 81° East 387 445 30,000 1,065 Climbing Minneapolis Center
Sat 12:56:58 PM 42.0744 -93.9969 81° East 395 455 31,000 1,024 Climbing Minneapolis Center
Sat 12:57:59 PM 42.0894 -93.8667 81° East 398 458 32,100 976 Climbing Minneapolis Center
Sat 12:59:01 PM 42.1061 -93.7214 81° East 397 457 33,000 439 Climbing Minneapolis Center
Sat 01:00:02 PM 42.1253 -93.5383 82° East 414 476 33,000  Level Minneapolis Center
Sat 01:01:04 PM 42.1425 -93.3850 81° East 417 480 33,000  Level Minneapolis Center
Sat 01:02:06 PM 42.1589 -93.2361 82° East 410 472 33,000  Level Minneapolis Center
Sat 01:03:07 PM 42.1742 -93.0875 82° East 404 465 33,000  Level Minneapolis Center
Sat 01:04:09 PM 42.1906 -92.9381 82° East 406 467 33,000  Level Minneapolis Center
Sat 01:05:10 PM 42.2056 -92.7919 82° East 400 460 33,000  Level Minneapolis Center
Sat 01:06:12 PM 42.2239 -92.6153 82° East 400 460 33,000  Level Minneapolis Center
Sat 01:07:14 PM 42.2386 -92.4667 82° East 402 463 33,000  Level Minneapolis Center
Sat 01:08:15 PM 42.2539 -92.3175 82° East 404 465 33,000  Level Minneapolis Center
Sat 01:09:17 PM 42.2681 -92.1686 83° East 405 466 33,000 -57 Level Minneapolis Center
Sat 01:10:01 PM 42.2808 -92.0481 82° East 404 465 32,900 -623 Descending Chicago Center
Sat 01:11:03 PM 42.2944 -91.8931 83° East 418 481 31,900 -927 Descending Chicago Center
Sat 01:12:04 PM 42.3103 -91.7353 82° East 429 494 31,000 -439 Descending Chicago Center
Sat 01:13:06 PM 42.3242 -91.5814 83° East 423 487 31,000  Level Chicago Center
Sat 01:14:08 PM 42.3406 -91.4036 83° East 407 468 31,000  Level Chicago Center
Sat 01:15:10 PM 42.3539 -91.2544 83° East 405 466 31,000  Level Chicago Center
Sat 01:16:11 PM 42.3669 -91.1058 83° East 405 466 31,000  Level Chicago Center
Sat 01:17:13 PM 42.3803 -90.9544 83° East 410 472 31,000  Level Chicago Center
Sat 01:18:15 PM 42.3928 -90.8017 84° East 413 475 31,000  Level Chicago Center
Sat 01:19:17 PM 42.4111 -90.6186 82° East 414 476 31,000  Level Chicago Center
Sat 01:20:18 PM 42.4258 -90.4656 83° East 415 478 31,000 -49 Level Chicago Center
Sat 01:21:20 PM 42.4419 -90.3089 82° East 415 478 30,900 -1,161 Descending Chicago Center
Sat 01:22:22 PM 42.4564 -90.1531 83° East 429 494 28,600 -2,129 Descending Chicago Center
Sat 01:23:24 PM 42.4742 -89.9944 81° East 429 494 26,500 -2,146 Descending Chicago Center
Sat 01:24:25 PM 42.4914 -89.8086 83° East 415 478 24,200 -2,195 Descending Chicago Center
Sat 01:25:27 PM 42.5061 -89.6578 82° East 405 466 22,000 -2,323 Descending Chicago Center
Sat 01:26:29 PM 42.5200 -89.5094 83° East 399 459 19,400 -2,293 Descending Chicago Center
Sat 01:27:30 PM 42.5333 -89.3653 83° East 386 444 17,300 -2,000 Descending Chicago Center
Sat 01:28:32 PM 42.5456 -89.2367 83° East 349 402 15,300 -1,597 Descending Chicago Center
Sat 01:29:34 PM 42.5547 -89.1108 84° East 339 390 14,000 -677 Descending Chicago Center
Sat 01:30:36 PM 42.5203 -88.9817 110° East 312 359 13,900 -780 Descending Chicago Center
Sat 01:31:37 PM 42.4892 -88.8783 112° Southeast 298 343 12,400 -1,659 Descending Chicago Center
Sat 01:32:39 PM 42.4606 -88.7817 112° Southeast 279 321 10,500 -1,500 Descending Chicago Center
Sat 01:33:41 PM 42.4319 -88.6886 113° Southeast 269 310 9,300 -732 Descending Chicago Center
Sat 01:34:42 PM 42.4042 -88.5981 113° Southeast 264 304 9,000 -146 Descending Chicago Center
Sat 01:35:44 PM 42.3753 -88.5044 113° Southeast 267 307 9,000  Level Chicago Center
Sat 01:36:46 PM 42.3097 -88.4467 147° Southeast 277 319 9,000  Level Chicago Center
Sat 01:37:47 PM 42.2358 -88.4314 171° South 271 312 9,000 -439 Level Chicago Center
Sat 01:38:49 PM 42.1636 -88.4150 170° South 267 307 8,100 -919 Descending Chicago Center
Sat 01:39:51 PM 42.0908 -88.3967 169° South 266 306 7,100 -1,171 Descending Chicago Center
Sat 01:40:52 PM 42.0211 -88.3822 171° South 258 297 5,700 -1,073 Descending Chicago Center
Sat 01:41:54 PM 41.9842 -88.3250 131° Southeast 236 272 4,900 -780 Descending Chicago Center
Sat 01:42:55 PM 41.9672 -88.2403 105° East 206 237 4,100 -439 Descending Chicago Center
Sat 01:43:57 PM 41.9672 -88.1644 90° East 203 234 4,000 -532 Descending Chicago Center
Sat 01:44:59 PM 41.9683 -88.0872 89° East 204 235 3,000 -1,037 Descending Chicago Center
Sat 01:45:18 PM 41.9667 -88.0667 96° East 197 227 2,600 -918 Descending Chicago TRACON
Sat 01:46:24 PM 41.9667 -88.0000 90° East 138 159 1,700 -762 Descending Chicago TRACON
Sat 01:47:24 PM 41.9667 -87.9500 90° East 134 154 1,000 -700 Descending Chicago TRACON
Sat 01:49:00 PM 41.9667 -87.9000 143° Southeast  Level FlightAware Approximate

Login

Don't have an account? Register now (free) for customized features, flight alerts, and more!